Little Torch Key, Florida
Current Conditions -  °F | °C
As of 2:53 PM on Friday 31 Oct 2014 (Local Time) from KNQX Reporting Station
Broken Clouds Broken Clouds  
Wind Chill: 85°   Ceiling: 10000
Heat Index: 87°   Visibility: 10mi
Dew Point: 66°   Wind: 13mph
Humidity: 53%   Direction: 290°WNW
Pressure: 29.83"   Gusts: NA
Location:  24.6465°N, 81.5399°W
Report Text: KNQX 311853Z 29011KT 10SM SCT035 BKN100 29/19 A2983 RMK AO2 SLP099 T02940189 $
Loading
Personal Weather Stations






























Interactive Weather Map
Tropical Storm Tracking
New forecast layout! Learn more

10-Day Weather Forecast

Advertisements
Track Severe Weather on mobile